Latest Coastal Weather Observations for Moruya Airport

IDN60701

Issued at 11:25 pm EST Thursday 31 July 2014 (issued every 10 minutes, with the page automatically refreshed every 10 minutes)

About coastal observations | Map of coastal stations | Coastal observations for NSW | Marine services | Other Formats
Station Details ID: 069148 Name: MORUYA AIRPORT AWS Lat: -35.90 Lon: 150.14 Height: 4.0 m
Data from the previous 72 hours. | See also: Recent months for locations in New South Wales
Date/Time
EST
Temp

°C
Wind Pressure Rain
since 9am
mm
Weather Cloud Vis
km
Sea
Height
m
Swell
Dir
 
Speed
knots
Gust
knots
hPa Trend Height
m
Period
s
Dir
31/11:00pm 20.3 NW 11 20 1000.3 - 0.0 - - 10 - - - -
31/10:30pm 20.5 NW 11 20 1000.3 - 0.0 - - 10 - - - -
31/10:00pm 20.4 NNW 13 21 1000.3 - 0.0 - - 10 - - - -
31/09:30pm 20.7 NW 14 29 1000.4 - 0.0 - - 10 - - - -
31/09:01pm 20.9 NW 15 33 1000.3 - 0.0 - - 10 - - - -
31/09:00pm 21.0 NW 14 33 1000.2 - 0.0 - - 10 - - - -
31/08:30pm 20.8 NW 16 29 1000.3 - 0.0 - - 10 - - - -
31/08:00pm 21.1 NW 16 30 999.7 - 0.0 - - 10 - - - -
31/07:49pm 21.1 NW 15 26 999.6 - 0.0 - - 10 - - - -
31/07:30pm 20.9 NW 13 27 999.4 - 0.0 - - 10 - - - -
31/07:00pm 21.1 NW 16 28 999.3 - 0.0 - - 10 - - - -
31/06:31pm 20.9 NW 15 28 999.0 - 0.0 - - 10 - - - -
31/06:30pm 21.0 NW 14 25 999.0 - 0.0 - - 10 - - - -
31/06:00pm 20.8 NNW 15 27 999.2 - 0.0 - - 10 - - - -
31/05:31pm 20.7 NW 15 31 999.1 - 0.0 - - 10 - - - -
31/05:30pm 20.7 NW 14 31 999.1 - 0.0 - - 10 - - - -
31/05:16pm 20.9 NW 15 29 999.0 - 0.0 - - 10 - - - -
31/05:00pm 20.6 NW 13 28 999.2 - 0.0 - - 10 - - - -
31/04:30pm 21.5 NW 17 35 999.0 - 0.0 - - 10 - - - -
31/04:00pm 22.0 NNW 16 33 999.0 - 0.0 - - 10 - - - -
31/03:30pm 22.3 NNW 19 40 999.3 - 0.0 - - 10 - - - -
31/03:22pm 22.3 NW 18 40 999.3 - 0.0 - - 10 - - - -
31/03:00pm 22.7 NNW 16 27 999.6 - 0.0 - - 10 - - - -
31/02:30pm 23.0 NNW 15 26 999.9 - 0.0 - - 10 - - - -
31/02:00pm 23.1 NNW 18 28 1000.3 - 0.0 - - 10 - - - -
31/01:44pm 23.1 NNW 15 32 1000.3 - 0.0 - - 10 - - - -
31/01:30pm 23.4 NW 14 24 1000.7 - 0.0 - - 10 - - - -
31/01:00pm 23.4 NNW 16 28 1001.3 - 0.0 - - 10 - - - -
31/12:30pm 23.0 NNW 17 30 1002.1 - 0.0 - - 10 - - - -
31/12:04pm 22.8 NNW 15 29 1002.9 - 0.0 - - 10 - - - -
31/12:00pm 22.8 NNW 14 25 1003.0 - 0.0 - - 10 - - - -
31/11:55am 22.8 NNW 15 25 1003.1 - 0.0 - - 10 - - - -
31/11:30am 22.1 NNW 14 23 1004.0 - 0.0 - - 10 - - - -
31/11:00am 21.8 NNW 12 19 1004.9 - 0.0 - - 10 - - - -
31/10:30am 21.1 N 11 16 1005.5 - 0.0 - - 10 - - - -
31/10:00am 21.0 N 10 13 1006.3 - 0.0 - - 10 - - - -
31/09:30am 20.0 N 13 20 1006.8 - 0.0 - - 10 - - - -
31/09:00am 18.7 NNE 13 18 1007.3 - 0.0 - - 10 - - - -
31/08:30am 17.8 N 10 19 1007.9 - 0.0 - - 10 - - - -
31/08:00am 16.2 N 7 11 1008.2 - 0.0 - - 10 - - - -
31/07:30am 12.9 N 5 7 1008.5 - 0.0 - - 10 - - - -
31/07:00am 14.2 N 7 11 1008.5 - 0.0 - - 10 - - - -
31/06:30am 14.3 N 7 9 1008.5 - 0.0 - - 10 - - - -
31/06:00am 12.8 N 9 12 1008.5 - 0.0 - - 10 - - - -
31/05:30am 12.4 N 9 11 1008.6 - 0.0 - - 10 - - - -
31/05:00am 13.3 N 9 11 1008.7 - 0.0 - - 10 - - - -
31/04:30am 12.6 N 7 9 1008.9 - 0.0 - - 10 - - - -
31/04:00am 12.2 N 5 7 1009.0 - 0.0 - - 10 - - - -
31/03:30am 11.0 N 4 6 1009.3 - 0.0 - - 10 - - - -
31/03:00am 14.7 N 7 10 1009.5 - 0.0 - - 10 - - - -
31/02:30am 15.0 N 6 9 1009.7 - 0.0 - - 10 - - - -
31/02:00am 15.9 N 7 10 1010.0 - 0.0 - - 10 - - - -
31/01:30am 16.6 N 8 11 1010.4 - 0.0 - - 10 - - - -
31/01:00am 17.5 NNW 9 13 1010.5 - 0.0 - - 10 - - - -
31/12:30am 17.2 NW 7 12 1010.5 - 0.0 - - 10 - - - -
31/12:00am 13.9 NW 5 10 1011.0 - 0.0 - - 10 - - - -
 
Date/Time
EST
Temp

°C
Wind Pressure Rain
since 9am
mm
Weather Cloud Vis
km
Sea
Height
m
Swell
Dir
 
Speed
knots
Gust
knots
hPa Trend Height
m
Period
s
Dir
30/11:30pm 17.0 N 7 11 1011.3 - 0.0 - - 10 - - - -
30/11:00pm 16.5 NNW 7 11 1011.5 - 0.0 - - 10 - - - -
30/10:30pm 15.1 N 7 10 1011.8 - 0.0 - - 10 - - - -
30/10:00pm 11.4 N 6 8 1012.1 - 0.0 - - 10 - - - -
30/09:30pm 12.9 NNW 5 7 1012.3 - 0.0 - - 10 - - - -
30/09:00pm 12.4 NNW 5 8 1012.5 - 0.0 - - 10 - - - -
30/08:30pm 13.2 NNW 6 9 1012.6 - 0.0 - - 10 - - - -
30/08:00pm 14.4 N 7 10 1012.7 - 0.0 - - 10 - - - -
30/07:30pm 13.5 N 4 6 1012.7 - 0.0 - - 10 - - - -
30/07:00pm 16.5 NNW 5 7 1012.8 - 0.0 - Partly cloudy 10 - - - -
30/06:30pm 17.4 NNW 4 6 1012.6 - 0.0 - Partly cloudy 10 - - - -
30/06:00pm 18.1 NW 7 12 1012.3 - 0.0 - - 10 - - - -
30/05:30pm 18.2 NW 8 16 1011.9 - 0.0 - - 10 - - - -
30/05:00pm 18.8 NW 8 12 1011.7 - 0.0 - - 10 - - - -
30/04:30pm 19.8 NNW 11 18 1011.1 - 0.0 - - 10 - - - -
30/04:00pm 20.4 N 9 14 1010.7 - 0.0 - - 10 - - - -
30/03:30pm 20.2 NNW 6 9 1010.6 - 0.0 - - 10 - - - -
30/03:00pm 20.7 NNW 8 13 1010.5 - 0.0 - Mostly clear 10 - - - -
30/02:30pm 21.1 NW 7 12 1010.7 - 0.0 - - 10 - - - -
30/02:00pm 22.2 NNW 9 15 1010.6 - 0.0 - - 10 - - - -
30/01:30pm 22.3 NNW 10 16 1010.6 - 0.0 - - 10 - - - -
30/01:00pm 21.4 NNW 11 19 1010.9 - 0.0 - - 10 - - - -
30/12:30pm 22.0 NNW 10 18 1011.3 - 0.0 - - 10 - - - -
30/12:00pm 22.1 NNW 9 14 1011.8 - 0.0 - - 10 - - - -
30/11:30am 21.4 NW 10 19 1012.4 - 0.0 - - 10 - - - -
30/11:00am 21.0 NW 9 16 1012.9 - 0.0 - - 10 - - - -
30/10:30am 20.0 NNW 11 17 1013.5 - 0.0 - - 10 - - - -
30/10:00am 19.8 N 9 13 1014.0 - 0.0 - - 10 - - - -
30/09:30am 18.2 NNW 7 12 1014.2 - 0.0 - - 10 - - - -
30/09:00am 16.4 NNW 9 13 1014.4 - 0.0 - - 10 - - - -
30/08:30am 15.4 N 9 15 1014.2 - 0.0 - - 10 - - - -
30/08:00am 14.6 NNW 9 13 1013.9 - 0.0 - Partly cloudy 10 - - - -
30/07:30am 14.0 NNW 8 11 1013.8 - 0.0 - - 10 - - - -
30/07:00am 12.3 NNW 7 8 1013.5 - 0.0 - - 10 - - - -
30/06:30am 12.7 N 6 9 1013.2 - 0.0 - - 10 - - - -
30/06:00am 12.3 N 6 8 1012.8 - 0.0 - - 10 - - - -
30/05:30am 9.7 N 6 7 1012.5 - 0.0 - - 10 - - - -
30/05:00am 12.2 NW 6 8 1012.2 - 0.0 - - 10 - - - -
30/04:30am 10.2 N 5 8 1012.0 - 0.0 - Partly cloudy 10 - - - -
30/04:00am 9.7 WSW 2 4 1011.9 - 0.0 - Partly cloudy 10 - - - -
30/03:30am 10.4 W 1 4 1011.9 - 0.0 - - 10 - - - -
30/03:00am 11.0 CALM 0 3 1011.6 - 0.0 - - 10 - - - -
30/02:30am 14.2 W 1 6 1011.4 - 0.0 - - 10 - - - -
30/02:00am 16.6 NNW 4 7 1010.7 - 0.0 - - 10 - - - -
30/01:30am 17.0 N 6 9 1010.4 - 0.0 - - 10 - - - -
30/01:00am 13.6 NW 4 6 1010.6 - 0.0 - - 10 - - - -
30/12:30am 12.2 NNW 4 7 1011.2 - 0.0 - - 10 - - - -
30/12:00am 13.0 CALM 0 1 1011.4 - 0.0 - - 10 - - - -
 
Date/Time
EST
Temp

°C
Wind Pressure Rain
since 9am
mm
Weather Cloud Vis
km
Sea
Height
m
Swell
Dir
 
Speed
knots
Gust
knots
hPa Trend Height
m
Period
s
Dir
29/11:30pm 16.0 NW 6 11 1011.4 - 0.0 - - 10 - - - -
29/11:00pm 16.9 NNW 6 11 1010.9 - 0.0 - - 10 - - - -
29/10:30pm 17.4 N 9 13 1011.1 - 0.0 - - 10 - - - -
29/10:00pm 17.0 N 7 10 1011.1 - 0.0 - - 10 - - - -
29/09:30pm 16.8 N 7 12 1011.2 - 0.0 - - 10 - - - -
29/09:00pm 16.9 N 6 10 1011.2 - 0.0 - - 10 - - - -
29/08:30pm 17.0 N 6 9 1010.6 - 0.0 - - 10 - - - -
29/08:00pm 17.4 N 8 11 1010.4 - 0.0 - - 10 - - - -
29/07:30pm 17.8 N 8 13 1010.3 - 0.0 - - 10 - - - -
29/07:00pm 18.1 NNW 10 17 1010.0 - 0.0 - - 10 - - - -
29/06:30pm 18.9 NNW 11 20 1009.7 - 0.0 - - 10 - - - -
29/06:00pm 18.9 NNW 10 15 1009.4 - 0.0 - - 10 - - - -
29/05:30pm 19.3 NNW 11 19 1009.1 - 0.0 - - 10 - - - -
29/05:00pm 19.8 NNW 11 16 1008.8 - 0.0 - - 10 - - - -
29/04:30pm 21.0 NNW 8 13 1008.5 - 0.0 - - 10 - - - -
29/04:00pm 22.5 NW 8 13 1008.1 - 0.0 - - 10 - - - -
29/03:30pm 22.6 NNW 9 15 1008.1 - 0.0 - - 10 - - - -
29/03:00pm 22.8 NW 9 16 1008.2 - 0.0 - - 10 - - - -
29/02:30pm 23.8 NW 8 12 1008.3 - 0.0 - - 10 - - - -
29/02:00pm 23.7 WNW 9 16 1008.1 - 0.0 - - 10 - - - -
29/01:30pm 24.0 NW 10 17 1007.8 - 0.0 - - 10 - - - -
29/01:00pm 23.4 W 3 6 1008.3 - 0.0 - - 10 - - - -
29/12:30pm 21.0 ENE 8 10 1009.1 - 0.0 - - 10 - - - -
29/12:00pm 19.8 NE 12 16 1010.0 - 0.0 - - 10 - - - -
29/11:30am 19.0 NNE 13 17 1010.8 - 0.0 - - 10 - - - -
29/11:00am 18.5 NE 8 13 1012.5 - 0.0 - - 10 - - - -
29/10:30am 18.7 N 7 10 1012.2 - 0.0 - - 10 - - - -
29/10:00am 17.4 N 7 10 1012.6 - 0.0 - - 10 - - - -
29/09:30am 16.1 N 7 8 1012.8 - 0.0 - - 10 - - - -
29/09:00am 14.8 N 6 9 1013.1 - 0.0 - - 10 - - - -
29/08:30am 13.3 N 6 9 1013.5 - 0.0 - - 10 - - - -
29/08:00am 11.2 NNW 6 8 1013.6 - 0.0 - - 10 - - - -
29/07:30am 11.2 N 7 10 1013.7 - 0.0 - - 10 - - - -
29/07:00am 11.4 N 8 13 1013.6 - 0.0 - - 10 - - - -
29/06:30am 12.2 N 9 13 1013.6 - 0.0 - - 10 - - - -
29/06:00am 12.1 N 8 11 1013.4 - 0.0 - - 10 - - - -
29/05:30am 12.1 N 8 11 1013.5 - 0.0 - - 10 - - - -
29/05:00am 12.4 N 9 13 1013.7 - 0.0 - - 10 - - - -
29/04:30am 12.7 N 9 12 1013.5 - 0.0 - - 10 - - - -
29/04:00am 12.3 N 8 11 1013.6 - 0.0 - - 10 - - - -
29/03:30am 11.0 N 7 10 1013.6 - 0.0 - - 10 - - - -
29/03:00am 9.5 N 6 9 1013.6 - 0.0 - - 10 - - - -
29/02:30am 10.4 NNW 5 8 1013.9 - 0.0 - - 10 - - - -
29/02:00am 9.4 NNW 7 9 1014.3 - 0.0 - - 10 - - - -
29/01:30am 8.1 NNW 5 7 1014.4 - 0.0 - - 10 - - - -
29/01:00am 9.4 NNW 4 6 1014.8 - 0.0 - - 10 - - - -
29/12:30am 9.6 NW 6 8 1015.1 - 0.0 - - 10 - - - -
29/12:00am 7.8 NNW 4 5 1015.4 - 0.0 - - 10 - - - -
 
Date/Time
EST
Temp

°C
Wind Pressure Rain
since 9am
mm
Weather Cloud Vis
km
Sea
Height
m
Swell
Dir
 
Speed
knots
Gust
knots
hPa Trend Height
m
Period
s
Dir
28/11:30pm 8.9 NNW 4 5 1015.7 - 0.0 - - 10 - - - -

Other Formats:

Comma delimited format used in spreadsheet applications
http://www.bom.gov.au/fwo/IDN60701/IDN60701.95937.axf

JavaScript Object Notation format (JSON) in row-major order
http://www.bom.gov.au/fwo/IDN60701/IDN60701.95937.json